createdAt,value
2019-02-19T00:01:49.710Z,27.87
2019-02-19T00:04:21.466Z,26.37
2019-02-19T00:06:53.121Z,24.00
2019-02-19T00:09:24.878Z,22.77
2019-02-19T00:11:56.676Z,26.20
2019-02-19T00:14:28.426Z,24.93
2019-02-19T00:16:59.975Z,23.73
2019-02-19T00:19:31.536Z,25.43
2019-02-19T00:22:03.084Z,29.13
2019-02-19T00:24:34.446Z,26.50
2019-02-19T00:27:05.978Z,25.77
2019-02-19T00:29:38.269Z,23.03
2019-02-19T00:32:09.643Z,25.27
2019-02-19T00:34:41.043Z,25.23
2019-02-19T00:37:14.573Z,25.73
2019-02-19T00:39:46.095Z,26.20
2019-02-19T00:42:17.802Z,26.20
2019-02-19T00:44:49.522Z,24.67
2019-02-19T00:47:21.061Z,26.57
2019-02-19T00:49:53.000Z,25.33
2019-02-19T00:52:25.376Z,26.93
2019-02-19T00:54:56.843Z,24.77
2019-02-19T00:57:28.365Z,25.00
2019-02-19T00:59:59.652Z,27.40
2019-02-19T01:02:30.967Z,29.40
2019-02-19T01:05:03.202Z,38.90
2019-02-19T01:07:34.518Z,31.97
2019-02-19T01:10:06.421Z,31.87
2019-02-19T01:12:38.137Z,30.53
2019-02-19T01:15:10.855Z,27.83
2019-02-19T01:17:42.175Z,31.13
2019-02-19T01:20:13.825Z,28.20
2019-02-19T01:22:45.209Z,27.40
2019-02-19T01:25:17.087Z,31.27
2019-02-19T01:27:48.381Z,28.77
2019-02-19T01:30:19.993Z,32.27
2019-02-19T01:32:51.542Z,30.77
2019-02-19T01:35:22.849Z,33.93
2019-02-19T01:37:54.202Z,34.43
2019-02-19T01:40:25.522Z,34.27
2019-02-19T01:42:56.791Z,32.53
2019-02-19T01:45:33.885Z,33.80
2019-02-19T01:48:01.411Z,29.90
2019-02-19T01:50:32.936Z,36.90
2019-02-19T01:53:04.651Z,32.00
2019-02-19T01:55:37.102Z,31.43
2019-02-19T01:58:08.608Z,31.37
2019-02-19T02:00:40.009Z,29.67
2019-02-19T02:03:11.556Z,31.33
2019-02-19T02:05:43.121Z,25.83
2019-02-19T02:08:14.569Z,28.93
2019-02-19T02:10:45.736Z,28.83
2019-02-19T02:13:17.433Z,33.53
2019-02-19T02:15:48.784Z,31.60
2019-02-19T02:18:19.960Z,28.80
2019-02-19T02:20:51.187Z,33.27
2019-02-19T02:23:22.732Z,30.07
2019-02-19T02:25:54.040Z,35.47
2019-02-19T02:28:25.584Z,36.40
2019-02-19T02:30:56.959Z,36.93
2019-02-19T02:33:28.130Z,32.73
2019-02-19T02:35:59.315Z,36.53
2019-02-19T02:38:30.829Z,40.30
2019-02-19T02:41:02.117Z,30.03
2019-02-19T02:43:34.009Z,36.13
2019-02-19T02:46:05.299Z,33.00
2019-02-19T02:48:36.858Z,36.20
2019-02-19T02:51:08.049Z,29.33
2019-02-19T02:53:39.444Z,30.00
2019-02-19T02:56:10.599Z,34.00
2019-02-19T02:58:41.761Z,34.87
2019-02-19T03:01:13.119Z,32.67
2019-02-19T03:03:44.378Z,36.10
2019-02-19T03:06:24.412Z,37.90
2019-02-19T03:08:55.699Z,40.00
2019-02-19T03:11:27.115Z,33.00
2019-02-19T03:13:58.303Z,31.60
2019-02-19T03:16:29.548Z,37.73
2019-02-19T03:19:01.319Z,37.63
2019-02-19T03:21:32.497Z,33.53
2019-02-19T03:24:03.753Z,33.87
2019-02-19T03:26:34.923Z,30.17
2019-02-19T03:29:07.059Z,34.33
2019-02-19T03:31:38.301Z,34.50
2019-02-19T03:34:09.504Z,32.87
2019-02-19T03:36:40.695Z,34.00
2019-02-19T03:39:12.425Z,34.83
2019-02-19T03:41:44.044Z,33.33
2019-02-19T03:44:15.433Z,34.33
2019-02-19T03:46:46.773Z,37.87
2019-02-19T03:49:18.063Z,37.23
2019-02-19T03:51:49.536Z,33.43
2019-02-19T03:54:21.159Z,33.93
2019-02-19T03:56:52.559Z,34.87
2019-02-19T03:59:23.942Z,33.73
2019-02-19T04:01:55.313Z,34.87
2019-02-19T04:04:26.730Z,34.50
2019-02-19T04:06:59.091Z,34.80
2019-02-19T04:09:30.754Z,31.47
2019-02-19T04:12:02.117Z,36.17
2019-02-19T04:14:33.258Z,34.17
2019-02-19T04:17:04.837Z,38.30
2019-02-19T04:19:35.992Z,34.47
2019-02-19T04:22:07.715Z,37.30
2019-02-19T04:24:39.519Z,37.00
2019-02-19T04:27:10.685Z,35.97
2019-02-19T04:29:42.272Z,38.97
2019-02-19T04:32:13.555Z,39.30
2019-02-19T04:34:44.731Z,42.13
2019-02-19T04:37:16.155Z,37.83
2019-02-19T04:39:47.407Z,35.60
2019-02-19T04:42:18.584Z,39.17
2019-02-19T04:44:49.768Z,38.80
2019-02-19T04:47:21.013Z,41.77
2019-02-19T04:49:52.194Z,41.87
2019-02-19T04:52:23.374Z,39.10
2019-02-19T04:54:54.528Z,41.97
2019-02-19T04:57:25.960Z,47.40
2019-02-19T04:59:57.143Z,41.03
2019-02-19T05:02:28.353Z,38.97
2019-02-19T05:04:59.497Z,48.57
2019-02-19T05:07:31.231Z,40.23
2019-02-19T05:10:02.543Z,42.93
2019-02-19T05:12:34.121Z,44.10
2019-02-19T05:15:06.153Z,49.53
2019-02-19T05:17:37.690Z,41.43
2019-02-19T05:20:09.389Z,44.87
2019-02-19T05:22:40.538Z,47.27
2019-02-19T05:25:11.785Z,46.10
2019-02-19T05:27:43.162Z,51.67
2019-02-19T05:30:14.634Z,48.47
2019-02-19T05:32:45.773Z,42.97
2019-02-19T05:35:17.019Z,41.73
2019-02-19T05:37:48.258Z,48.43
2019-02-19T05:40:19.877Z,46.20
2019-02-19T05:42:51.161Z,50.73
2019-02-19T05:45:22.354Z,45.00
2019-02-19T05:47:53.537Z,41.57
2019-02-19T05:50:24.739Z,40.40
2019-02-19T05:52:55.994Z,49.13
2019-02-19T05:55:27.241Z,42.57
2019-02-19T05:57:58.397Z,42.30
2019-02-19T06:00:29.924Z,41.63
2019-02-19T06:03:01.115Z,45.87
2019-02-19T06:05:32.292Z,40.43
2019-02-19T06:08:03.461Z,44.37
2019-02-19T06:10:34.644Z,41.40
2019-02-19T06:13:06.305Z,48.33
2019-02-19T06:15:37.650Z,46.10
2019-02-19T06:18:08.872Z,51.27
2019-02-19T06:20:40.077Z,46.37
2019-02-19T06:23:11.569Z,53.20
2019-02-19T06:25:43.152Z,56.77
2019-02-19T06:28:14.653Z,46.30
2019-02-19T06:30:46.318Z,54.87
2019-02-19T06:33:17.451Z,50.00
2019-02-19T06:35:48.660Z,53.00
2019-02-19T06:38:20.087Z,54.97
2019-02-19T06:40:51.776Z,48.97
2019-02-19T06:43:22.987Z,51.37
2019-02-19T06:45:54.205Z,52.83
2019-02-19T06:48:25.340Z,57.03
2019-02-19T06:50:56.554Z,56.23
2019-02-19T06:53:28.791Z,58.30
2019-02-19T06:55:59.973Z,63.13
2019-02-19T06:58:31.285Z,65.20
2019-02-19T07:01:03.806Z,67.47
2019-02-19T07:03:45.259Z,64.57
2019-02-19T07:06:16.949Z,63.87
2019-02-19T07:08:48.369Z,62.37
2019-02-19T07:11:20.942Z,60.07
2019-02-19T07:13:52.474Z,63.73
2019-02-19T07:16:23.847Z,69.03
2019-02-19T07:18:55.220Z,56.77
2019-02-19T07:21:26.659Z,44.23
2019-02-19T07:24:04.460Z,52.07
2019-02-19T07:26:31.257Z,42.77
2019-02-19T07:29:02.597Z,45.07
2019-02-19T07:31:33.954Z,40.73
2019-02-19T07:34:05.409Z,37.63
2019-02-19T07:36:36.886Z,41.57
2019-02-19T07:39:08.285Z,39.10
2019-02-19T07:41:39.613Z,40.27
2019-02-19T07:44:11.017Z,38.97
2019-02-19T07:46:43.003Z,38.70
2019-02-19T07:49:14.255Z,38.57
2019-02-19T07:51:45.576Z,41.60
2019-02-19T07:54:17.035Z,44.77
2019-02-19T07:56:48.549Z,44.47
2019-02-19T07:59:20.347Z,42.87
2019-02-19T08:01:51.842Z,39.40
2019-02-19T08:04:23.249Z,41.37
2019-02-19T08:06:54.693Z,41.33
2019-02-19T08:09:26.019Z,40.97
2019-02-19T08:11:57.395Z,41.83
2019-02-19T08:14:28.682Z,40.00
2019-02-19T08:17:00.210Z,37.63
2019-02-19T08:19:31.763Z,37.03
2019-02-19T08:22:04.826Z,39.23
2019-02-19T08:24:36.147Z,39.00
2019-02-19T08:27:07.745Z,36.07
2019-02-19T08:29:39.058Z,36.27
2019-02-19T08:32:10.532Z,34.37
2019-02-19T08:34:41.756Z,35.47
2019-02-19T08:37:13.254Z,32.60
2019-02-19T08:39:44.622Z,34.93
2019-02-19T08:42:16.017Z,32.73
2019-02-19T08:44:47.554Z,32.13
2019-02-19T08:47:18.948Z,32.23
2019-02-19T08:49:50.326Z,34.27
2019-02-19T08:52:21.828Z,30.70
2019-02-19T08:54:53.445Z,33.87
2019-02-19T08:57:25.274Z,36.30
2019-02-19T08:59:56.889Z,35.60
2019-02-19T09:02:28.100Z,35.17
2019-02-19T09:04:59.768Z,32.60
2019-02-19T09:07:31.448Z,36.17
2019-02-19T09:10:04.525Z,35.73
2019-02-19T09:12:35.840Z,30.70
2019-02-19T09:15:11.012Z,30.47
2019-02-19T09:17:42.109Z,34.90
2019-02-19T09:20:13.945Z,34.77
2019-02-19T09:22:45.661Z,36.37
2019-02-19T09:25:17.354Z,32.63
2019-02-19T09:27:48.741Z,33.10
2019-02-19T09:30:20.100Z,31.33
2019-02-19T09:32:51.620Z,33.63
2019-02-19T09:35:23.299Z,35.03
2019-02-19T09:37:54.609Z,37.33
2019-02-19T09:40:25.946Z,31.50
2019-02-19T09:42:59.652Z,33.73
2019-02-19T09:45:31.025Z,29.97
2019-02-19T09:48:02.348Z,32.83
2019-02-19T09:50:34.554Z,30.63
2019-02-19T09:53:06.698Z,32.33
2019-02-19T09:55:38.343Z,30.67
2019-02-19T09:58:09.589Z,30.77
2019-02-19T10:00:41.032Z,29.50
2019-02-19T10:03:12.870Z,27.07
2019-02-19T10:05:44.275Z,23.87
2019-02-19T10:08:15.541Z,25.10
2019-02-19T10:10:47.251Z,27.03
2019-02-19T10:13:18.603Z,25.27
2019-02-19T10:15:50.193Z,25.33
2019-02-19T10:18:21.684Z,25.93
2019-02-19T10:20:52.974Z,24.23
2019-02-19T10:23:24.375Z,24.57
2019-02-19T10:25:56.121Z,24.97
2019-02-19T10:28:27.493Z,23.47
2019-02-19T10:30:59.373Z,27.30
2019-02-19T10:33:30.904Z,27.40
2019-02-19T10:36:02.242Z,25.57
2019-02-19T10:38:33.673Z,28.67
2019-02-19T10:41:05.331Z,23.90
2019-02-19T10:43:37.164Z,23.60
2019-02-19T10:46:08.957Z,22.90
2019-02-19T10:48:40.363Z,22.77
2019-02-19T10:51:11.882Z,28.07
2019-02-19T10:53:43.210Z,24.73
2019-02-19T10:56:14.835Z,26.03
2019-02-19T10:58:46.227Z,22.03
2019-02-19T11:01:17.652Z,26.53
2019-02-19T11:03:50.360Z,29.57
2019-02-19T11:06:21.760Z,28.60
2019-02-19T11:08:53.797Z,26.83
2019-02-19T11:11:25.287Z,27.40
2019-02-19T11:13:56.640Z,25.23
2019-02-19T11:16:28.026Z,23.67
2019-02-19T13:02:21.167Z,14.73
2019-02-19T13:04:52.343Z,16.17
2019-02-19T13:07:23.767Z,19.90
2019-02-19T13:09:55.278Z,27.03
2019-02-19T13:12:26.626Z,19.23
2019-02-19T13:14:58.066Z,18.77
2019-02-19T13:17:29.645Z,19.23
2019-02-19T13:20:00.831Z,18.13
2019-02-19T13:22:32.159Z,16.83
2019-02-19T13:25:03.789Z,18.17
2019-02-19T13:27:35.182Z,17.30
2019-02-19T13:30:10.502Z,19.80
2019-02-19T13:32:42.259Z,18.67
2019-02-19T13:35:14.090Z,19.97
2019-02-19T13:37:45.286Z,19.53
2019-02-19T13:40:16.639Z,15.40
2019-02-19T13:42:48.078Z,17.97
2019-02-19T13:45:19.679Z,22.20
2019-02-19T13:47:51.079Z,18.00
2019-02-19T13:50:22.535Z,19.10
2019-02-19T13:53:07.636Z,24.80
2019-02-19T13:55:41.876Z,26.70
2019-02-19T13:58:13.081Z,18.07
2019-02-19T14:00:47.190Z,19.23
2019-02-19T14:03:18.914Z,21.70
2019-02-19T14:05:50.405Z,17.10
2019-02-19T14:08:22.381Z,19.30
2019-02-19T14:10:53.876Z,18.67
2019-02-19T14:13:25.096Z,17.90
2019-02-19T14:16:16.851Z,20.03
2019-02-19T14:18:56.361Z,18.20
2019-02-19T14:21:45.597Z,19.90
2019-02-19T14:24:54.018Z,19.83
2019-02-19T14:27:43.933Z,21.07
2019-02-19T14:30:34.119Z,21.47
2019-02-19T14:33:21.875Z,18.37
2019-02-19T14:36:20.326Z,18.80
2019-02-19T14:38:59.589Z,22.43
2019-02-19T14:41:49.554Z,19.63
2019-02-19T14:44:38.644Z,20.47
2019-02-19T14:47:35.010Z,19.73
2019-02-19T14:50:26.463Z,19.87
2019-02-19T14:53:31.866Z,18.40
2019-02-19T14:56:29.986Z,20.23
2019-02-19T14:59:14.057Z,22.20
2019-02-19T15:02:04.250Z,20.30
2019-02-19T15:04:53.169Z,18.27
2019-02-19T15:07:31.694Z,21.43
2019-02-19T15:10:19.746Z,18.10
2019-02-19T15:13:18.704Z,20.97
2019-02-19T15:16:09.299Z,23.67
2019-02-19T15:18:58.061Z,18.80
2019-02-19T15:21:45.094Z,19.13
2019-02-19T15:24:33.772Z,21.27
2019-02-19T15:27:17.698Z,25.80
2019-02-19T15:30:26.005Z,19.83
2019-02-19T15:33:16.104Z,19.23
2019-02-19T15:36:16.527Z,26.93
2019-02-19T15:38:54.607Z,18.33
2019-02-19T15:41:48.312Z,22.70
2019-02-19T15:44:44.431Z,21.60
2019-02-19T15:47:31.351Z,22.30
2019-02-19T15:50:24.747Z,26.97
2019-02-19T15:53:13.784Z,26.93
2019-02-19T15:56:07.133Z,24.87
2019-02-19T15:58:56.174Z,23.47
2019-02-19T16:01:44.159Z,26.23
2019-02-19T16:04:23.608Z,24.10
2019-02-19T16:07:01.262Z,19.87
2019-02-19T16:09:42.842Z,21.70
2019-02-19T16:12:36.060Z,15.80
2019-02-19T16:15:33.192Z,17.60
2019-02-19T16:18:12.726Z,13.67
2019-02-19T16:21:02.845Z,16.80
2019-02-19T16:23:46.830Z,13.17
2019-02-19T16:26:31.698Z,15.83
2019-02-19T16:29:28.203Z,21.43
2019-02-19T16:32:24.329Z,16.30
2019-02-19T16:35:05.155Z,19.43
2019-02-19T16:37:53.951Z,22.57
2019-02-19T16:40:32.590Z,16.47
2019-02-19T16:43:12.148Z,18.00
2019-02-19T16:46:04.340Z,17.83
2019-02-19T16:48:47.095Z,18.77
2019-02-19T16:51:49.507Z,16.83
2019-02-19T16:54:29.110Z,16.77
2019-02-19T16:57:28.471Z,19.37
2019-02-19T17:00:13.636Z,20.07
2019-02-19T17:03:04.141Z,22.40
2019-02-19T17:05:49.562Z,19.90
2019-02-19T17:08:38.171Z,24.37
2019-02-19T17:11:34.252Z,27.10
2019-02-19T17:14:32.748Z,29.27
2019-02-19T17:17:13.383Z,24.03
2019-02-19T17:20:17.588Z,20.63
2019-02-19T17:22:57.949Z,24.23
2019-02-19T17:25:38.882Z,21.80
2019-02-19T17:28:47.850Z,19.73
2019-02-19T17:31:36.716Z,23.23
2019-02-19T17:34:25.737Z,29.17
2019-02-19T17:37:14.996Z,23.20
2019-02-19T17:40:06.569Z,21.83
2019-02-19T17:42:52.685Z,22.00
2019-02-19T17:45:45.612Z,21.07
2019-02-19T17:48:53.990Z,26.23
2019-02-19T17:51:46.827Z,27.23
2019-02-19T17:54:35.678Z,28.00
2019-02-19T17:57:27.145Z,22.00
2019-02-19T18:00:17.199Z,21.60
2019-02-19T18:03:16.755Z,26.33
2019-02-19T18:06:08.896Z,25.57
2019-02-19T18:09:08.426Z,27.93
2019-02-19T18:12:07.754Z,35.60
2019-02-19T18:14:51.527Z,29.73
2019-02-19T18:17:38.573Z,24.63
2019-02-19T18:20:09.940Z,21.77
2019-02-19T18:22:41.254Z,24.93
2019-02-19T18:25:13.517Z,23.93
2019-02-19T18:27:45.001Z,27.20
2019-02-19T18:30:16.275Z,25.40
2019-02-19T18:32:47.916Z,24.07
2019-02-19T18:35:19.159Z,26.73
2019-02-19T18:37:50.359Z,30.93
2019-02-19T18:40:21.787Z,29.23
2019-02-19T18:42:53.321Z,25.17
2019-02-19T18:45:24.444Z,27.83
2019-02-19T18:47:55.957Z,27.70
2019-02-19T18:50:27.099Z,26.33
2019-02-19T18:52:58.306Z,27.63
2019-02-19T18:55:29.807Z,27.80
2019-02-19T18:58:01.067Z,23.27
2019-02-19T19:00:32.416Z,18.30
2019-02-19T19:03:06.800Z,18.63
2019-02-19T19:05:38.432Z,20.60
2019-02-19T19:08:09.973Z,27.20
2019-02-19T19:10:41.721Z,24.77
2019-02-19T19:13:13.375Z,24.10
2019-02-19T19:16:01.366Z,26.87
2019-02-19T19:18:32.499Z,28.33
2019-02-19T19:21:07.952Z,29.40
2019-02-19T19:23:41.487Z,25.27
2019-02-19T19:26:12.811Z,23.37
2019-02-19T19:28:44.185Z,23.97
2019-02-19T19:31:18.495Z,22.27
2019-02-19T19:33:51.438Z,22.67
2019-02-19T19:36:26.741Z,22.40
2019-02-19T19:39:04.742Z,23.77
2019-02-19T19:41:41.184Z,22.53
2019-02-19T19:44:13.232Z,20.53
2019-02-19T19:46:44.588Z,20.63
2019-02-19T19:49:15.923Z,20.70
2019-02-19T19:51:47.315Z,22.03
2019-02-19T19:54:18.678Z,21.67
2019-02-19T19:56:50.614Z,23.10
2019-02-19T19:59:22.333Z,23.17
2019-02-19T20:01:53.640Z,22.33
2019-02-19T20:04:25.011Z,19.57
2019-02-19T20:06:56.473Z,24.30
2019-02-19T20:09:27.843Z,20.50
2019-02-19T20:12:01.188Z,21.93
2019-02-19T20:14:38.942Z,23.07
2019-02-19T20:17:15.533Z,19.07
2019-02-19T20:19:44.140Z,20.77
2019-02-19T20:22:15.360Z,21.40
2019-02-19T20:24:46.729Z,19.77
2019-02-19T20:27:18.682Z,23.00
2019-02-19T20:29:50.029Z,16.07
2019-02-19T20:32:21.604Z,17.37
2019-02-19T20:34:52.939Z,17.47
2019-02-19T20:37:24.443Z,15.40
2019-02-19T20:39:55.718Z,16.27
2019-02-19T20:42:27.263Z,23.70
2019-02-19T20:44:59.267Z,19.37
2019-02-19T20:47:31.922Z,18.40
2019-02-19T20:50:03.732Z,20.80
2019-02-19T20:52:35.110Z,22.37
2019-02-19T20:55:07.429Z,21.73
2019-02-19T20:57:38.967Z,25.10
2019-02-19T21:00:15.109Z,25.63
2019-02-19T21:02:48.415Z,25.53
2019-02-19T21:05:20.114Z,24.97
2019-02-19T21:07:51.749Z,30.00
2019-02-19T21:10:24.316Z,26.27
2019-02-19T21:12:55.830Z,24.40
2019-02-19T21:15:27.312Z,25.43
2019-02-19T21:17:58.906Z,24.33
2019-02-19T21:20:31.375Z,23.23
2019-02-19T21:23:06.757Z,26.70
2019-02-19T21:25:38.278Z,26.90
2019-02-19T21:28:10.629Z,23.10
2019-02-19T21:30:42.139Z,26.47
2019-02-19T21:33:14.281Z,23.70
2019-02-19T21:35:46.350Z,24.67
2019-02-19T21:38:18.989Z,26.83
2019-02-19T21:40:50.653Z,19.57
2019-02-19T21:43:22.554Z,24.50
2019-02-19T21:45:54.284Z,28.03
2019-02-19T21:48:26.190Z,18.77
2019-02-19T21:50:57.893Z,19.90
2019-02-19T21:53:29.384Z,22.83
2019-02-19T21:56:01.712Z,23.97
2019-02-19T21:58:33.438Z,24.83
2019-02-19T22:01:05.363Z,25.53
2019-02-19T22:03:39.411Z,30.73
2019-02-19T22:06:11.269Z,31.70
2019-02-19T22:08:42.681Z,30.93
2019-02-19T22:11:15.647Z,31.63
2019-02-19T22:13:47.822Z,29.87
2019-02-19T22:16:19.860Z,29.00
2019-02-19T22:18:55.614Z,29.60
2019-02-19T22:21:34.246Z,31.47
2019-02-19T22:24:06.694Z,31.87
2019-02-19T22:26:38.586Z,32.93
2019-02-19T22:29:10.275Z,32.97
2019-02-19T22:31:41.671Z,29.67
2019-02-19T22:34:12.950Z,27.17
2019-02-19T22:36:44.422Z,26.30
2019-02-19T22:39:15.702Z,30.20
2019-02-19T22:41:47.505Z,30.10
2019-02-19T22:44:19.114Z,31.60
2019-02-19T22:46:50.839Z,30.30
2019-02-19T22:49:22.206Z,28.87
2019-02-19T22:51:53.836Z,29.60
2019-02-19T22:54:42.848Z,30.70
2019-02-19T22:57:14.324Z,30.50
2019-02-19T22:59:45.625Z,31.70
2019-02-19T23:02:25.633Z,30.03
2019-02-19T23:04:57.150Z,27.70
2019-02-19T23:07:28.705Z,31.13
2019-02-19T23:10:00.212Z,30.00
2019-02-19T23:12:31.586Z,29.40
2019-02-19T23:15:02.938Z,32.70
2019-02-19T23:17:35.595Z,29.03
2019-02-19T23:20:07.236Z,34.63
2019-02-19T23:22:38.891Z,33.47
2019-02-19T23:25:10.772Z,33.50
2019-02-19T23:27:42.269Z,34.90
2019-02-19T23:30:13.955Z,33.53
2019-02-19T23:32:46.123Z,39.13
2019-02-19T23:35:24.173Z,44.47
2019-02-19T23:37:55.547Z,47.50
2019-02-19T23:40:27.363Z,47.10
2019-02-19T23:42:59.134Z,51.03
2019-02-19T23:45:30.828Z,49.93
2019-02-19T23:48:02.254Z,46.43
2019-02-19T23:50:33.741Z,45.40
2019-02-19T23:53:05.519Z,39.90
2019-02-19T23:55:36.951Z,45.00
2019-02-19T23:58:08.401Z,37.87
